createdAt,value
2018-08-11T00:00:26.889Z,0.00
2018-08-11T00:02:19.704Z,0.00
2018-08-11T00:03:19.665Z,0.00
2018-08-11T00:05:12.488Z,0.00
2018-08-11T00:06:12.445Z,0.00
2018-08-11T00:08:05.275Z,0.00
2018-08-11T00:09:05.235Z,0.00
2018-08-11T00:10:58.047Z,0.00
2018-08-11T00:11:58.009Z,0.00
2018-08-11T00:13:50.853Z,0.00
2018-08-11T00:14:50.788Z,0.00
2018-08-11T00:16:44.128Z,0.00
2018-08-11T00:17:44.084Z,0.00
2018-08-11T00:19:37.419Z,0.00
2018-08-11T00:20:37.364Z,0.00
2018-08-11T00:22:30.173Z,0.00
2018-08-11T00:23:30.135Z,0.00
2018-08-11T00:25:22.965Z,0.00
2018-08-11T00:26:22.923Z,0.00
2018-08-11T00:28:15.734Z,0.00
2018-08-11T00:29:15.706Z,0.00
2018-08-11T00:31:09.011Z,0.00
2018-08-11T00:32:08.961Z,0.00
2018-08-11T00:34:02.291Z,0.00
2018-08-11T00:35:02.246Z,0.00
2018-08-11T00:36:55.568Z,0.00
2018-08-11T00:37:55.531Z,0.00
2018-08-11T00:39:48.341Z,0.00
2018-08-11T00:40:48.295Z,0.00
2018-08-11T00:42:41.125Z,0.00
2018-08-11T00:43:41.079Z,0.00
2018-08-11T00:45:33.907Z,0.00
2018-08-11T00:46:33.852Z,0.00
2018-08-11T00:48:26.661Z,0.00
2018-08-11T00:49:26.682Z,0.00
2018-08-11T00:51:19.477Z,0.00
2018-08-11T00:52:19.421Z,0.00
2018-08-11T00:54:12.229Z,0.00
2018-08-11T00:55:12.212Z,0.00
2018-08-11T00:57:05.021Z,0.00
2018-08-11T00:58:04.976Z,0.00
2018-08-11T00:59:57.790Z,0.00
2018-08-11T01:00:57.753Z,0.00
2018-08-11T01:02:50.593Z,0.00
2018-08-11T01:03:50.541Z,0.00
2018-08-11T01:05:43.361Z,0.00
2018-08-11T01:06:43.318Z,0.00
2018-08-11T01:08:36.651Z,0.00
2018-08-11T01:09:36.671Z,0.00
2018-08-11T01:11:29.401Z,0.00
2018-08-11T01:12:29.372Z,0.00
2018-08-11T01:14:22.715Z,0.00
2018-08-11T01:15:22.672Z,0.00
2018-08-11T01:17:15.497Z,0.00
2018-08-11T01:18:15.436Z,0.00
2018-08-11T01:20:08.326Z,0.00
2018-08-11T01:21:08.288Z,0.00
2018-08-11T01:23:01.612Z,0.00
2018-08-11T01:24:01.573Z,0.00
2018-08-11T01:25:54.402Z,0.00
2018-08-11T01:26:54.338Z,0.00
2018-08-11T01:28:47.173Z,0.00
2018-08-11T01:29:47.134Z,0.00
2018-08-11T01:31:39.965Z,0.00
2018-08-11T01:32:39.941Z,0.00
2018-08-11T01:34:33.228Z,0.00
2018-08-11T01:35:33.192Z,0.00
2018-08-11T01:37:26.033Z,0.00
2018-08-11T01:38:25.973Z,0.00
2018-08-11T01:40:18.778Z,0.00
2018-08-11T01:41:18.754Z,0.00
2018-08-11T01:43:11.578Z,0.00
2018-08-11T01:44:11.551Z,0.00
2018-08-11T01:46:04.353Z,0.00
2018-08-11T01:47:04.314Z,0.00
2018-08-11T01:48:57.150Z,0.00
2018-08-11T01:49:57.109Z,0.00
2018-08-11T01:51:49.918Z,0.00
2018-08-11T01:52:49.894Z,0.00
2018-08-11T01:54:43.209Z,0.00
2018-08-11T01:55:43.156Z,0.00
2018-08-11T01:57:36.111Z,0.00
2018-08-11T01:58:35.942Z,0.00
2018-08-11T02:00:29.263Z,0.00
2018-08-11T02:01:29.238Z,0.00
2018-08-11T02:03:22.549Z,0.00
2018-08-11T02:04:22.499Z,0.00
2018-08-11T02:06:15.313Z,0.00
2018-08-11T02:07:15.284Z,0.00
2018-08-11T02:09:08.094Z,0.00
2018-08-11T02:10:08.068Z,0.00
2018-08-11T02:12:01.359Z,0.00
2018-08-11T02:13:01.323Z,0.00
2018-08-11T02:14:54.168Z,0.00
2018-08-11T02:15:54.124Z,0.00
2018-08-11T02:17:47.433Z,0.00
2018-08-11T02:18:47.384Z,0.00
2018-08-11T02:20:40.713Z,0.00
2018-08-11T02:21:40.680Z,0.00
2018-08-11T02:23:33.488Z,0.00
2018-08-11T02:24:33.431Z,0.00
2018-08-11T02:26:26.254Z,0.00
2018-08-11T02:27:26.213Z,0.00
2018-08-11T02:29:19.065Z,0.00
2018-08-11T02:30:19.004Z,0.00
2018-08-11T02:32:11.809Z,0.00
2018-08-11T02:33:11.781Z,0.00
2018-08-11T02:35:04.610Z,0.00
2018-08-11T02:36:04.550Z,0.00
2018-08-11T02:37:57.366Z,0.00
2018-08-11T02:38:57.331Z,0.00
2018-08-11T02:40:50.163Z,0.00
2018-08-11T02:41:50.112Z,0.00
2018-08-11T02:43:42.925Z,0.00
2018-08-11T02:44:42.875Z,0.00
2018-08-11T02:46:35.697Z,0.00
2018-08-11T02:47:35.656Z,0.00
2018-08-11T02:49:28.475Z,0.00
2018-08-11T02:50:28.439Z,0.00
2018-08-11T02:52:21.262Z,0.00
2018-08-11T02:53:21.230Z,0.00
2018-08-11T02:55:14.039Z,0.00
2018-08-11T02:56:13.989Z,0.00
2018-08-11T02:58:06.835Z,0.00
2018-08-11T02:59:06.796Z,0.00
2018-08-11T03:00:59.596Z,0.00
2018-08-11T03:01:59.561Z,0.00
2018-08-11T03:03:52.876Z,0.00
2018-08-11T03:04:52.836Z,0.00
2018-08-11T03:06:45.676Z,0.00
2018-08-11T03:07:45.615Z,0.00
2018-08-11T03:09:38.931Z,0.00
2018-08-11T03:10:38.885Z,0.00
2018-08-11T03:12:31.722Z,0.00
2018-08-11T03:13:31.673Z,0.00
2018-08-11T03:15:24.981Z,0.00
2018-08-11T03:16:24.944Z,0.00
2018-08-11T03:18:17.766Z,0.00
2018-08-11T03:19:17.728Z,0.00
2018-08-11T03:21:10.556Z,0.00
2018-08-11T03:22:10.497Z,0.00
2018-08-11T03:24:03.300Z,0.00
2018-08-11T03:25:03.278Z,0.00
2018-08-11T03:26:56.596Z,0.00
2018-08-11T03:27:56.545Z,0.00
2018-08-11T03:29:49.348Z,0.00
2018-08-11T03:30:49.323Z,0.00
2018-08-11T03:32:42.181Z,0.00
2018-08-11T03:33:42.087Z,0.00
2018-08-11T03:35:35.418Z,0.00
2018-08-11T03:36:35.377Z,0.00
2018-08-11T03:38:28.205Z,0.00
2018-08-11T03:39:28.156Z,0.00
2018-08-11T03:41:21.461Z,0.00
2018-08-11T03:42:21.441Z,0.00
2018-08-11T03:44:14.733Z,0.00
2018-08-11T03:45:14.702Z,0.00
2018-08-11T03:47:07.514Z,0.00
2018-08-11T03:48:07.463Z,4.00
2018-08-11T03:50:00.793Z,0.00
2018-08-11T03:51:00.755Z,4.00
2018-08-11T03:52:54.036Z,4.00
2018-08-11T03:53:53.998Z,4.00
2018-08-11T03:55:47.312Z,4.00
2018-08-11T03:56:47.272Z,8.00
2018-08-11T03:58:40.591Z,12.00
2018-08-11T03:59:40.562Z,12.00
2018-08-11T04:01:33.392Z,12.00
2018-08-11T04:02:33.357Z,16.00
2018-08-11T04:04:26.161Z,20.00
2018-08-11T04:05:26.108Z,28.00
2018-08-11T04:07:18.913Z,32.00
2018-08-11T04:08:18.902Z,36.00
2018-08-11T04:10:11.712Z,44.00
2018-08-11T04:11:11.658Z,48.00
2018-08-11T04:13:04.979Z,56.00
2018-08-11T04:14:04.923Z,60.00
2018-08-11T04:15:58.238Z,72.00
2018-08-11T04:16:58.192Z,76.00
2018-08-11T04:18:50.993Z,92.00
2018-08-11T04:19:50.960Z,96.00
2018-08-11T04:21:43.782Z,108.00
2018-08-11T04:22:43.742Z,116.00
2018-08-11T04:24:37.089Z,132.00
2018-08-11T04:25:37.045Z,140.00
2018-08-11T04:27:29.834Z,156.00
2018-08-11T04:28:29.800Z,168.00
2018-08-11T04:30:22.625Z,192.00
2018-08-11T04:31:22.568Z,200.00
2018-08-11T04:33:15.384Z,204.00
2018-08-11T04:34:15.356Z,208.00
2018-08-11T04:36:08.172Z,220.00
2018-08-11T04:37:08.133Z,232.00
2018-08-11T04:39:00.928Z,256.00
2018-08-11T04:40:00.899Z,264.00
2018-08-11T04:41:53.756Z,284.00
2018-08-11T04:42:53.674Z,296.00
2018-08-11T04:44:46.493Z,328.00
2018-08-11T04:45:46.451Z,344.00
2018-08-11T04:47:39.765Z,368.00
2018-08-11T04:48:39.720Z,384.00
2018-08-11T04:50:32.541Z,404.00
2018-08-11T04:51:32.496Z,408.00
2018-08-11T04:53:25.301Z,408.00
2018-08-11T04:54:25.287Z,408.00
2018-08-11T04:56:18.081Z,420.00
2018-08-11T04:57:18.036Z,432.00
2018-08-11T04:59:10.846Z,464.00
2018-08-11T05:00:10.809Z,480.00
2018-08-11T05:02:04.145Z,508.00
2018-08-11T05:03:04.086Z,520.00
2018-08-11T05:04:56.901Z,540.00
2018-08-11T05:05:56.874Z,548.00
2018-08-11T05:07:49.700Z,572.00
2018-08-11T05:08:49.674Z,592.00
2018-08-11T05:10:42.462Z,620.00
2018-08-11T05:11:42.425Z,632.00
2018-08-11T05:13:35.241Z,644.00
2018-08-11T05:14:35.197Z,648.00
2018-08-11T05:16:28.007Z,660.00
2018-08-11T05:17:27.981Z,660.00
2018-08-11T05:19:21.392Z,704.00
2018-08-11T05:20:21.252Z,752.00
2018-08-11T05:22:14.062Z,748.00
2018-08-11T05:23:14.020Z,736.00
2018-08-11T05:25:06.852Z,740.00
2018-08-11T05:26:06.798Z,740.00
2018-08-11T05:27:59.630Z,816.00
2018-08-11T05:28:59.585Z,792.00
2018-08-11T05:30:52.896Z,836.00
2018-08-11T05:31:52.852Z,880.00
2018-08-11T05:33:45.677Z,936.00
2018-08-11T05:34:45.623Z,920.00
2018-08-11T05:36:38.941Z,964.00
2018-08-11T05:37:38.906Z,1012.00
2018-08-11T05:39:31.731Z,1024.00
2018-08-11T05:40:31.686Z,948.00
2018-08-11T05:42:24.501Z,892.00
2018-08-11T05:43:24.462Z,920.00
2018-08-11T05:45:17.286Z,932.00
2018-08-11T05:46:17.248Z,972.00
2018-08-11T05:48:10.061Z,1048.00
2018-08-11T05:49:10.027Z,1032.00
2018-08-11T05:51:02.833Z,1252.00
2018-08-11T05:52:02.801Z,1204.00
2018-08-11T05:53:55.622Z,1192.00
2018-08-11T05:54:55.576Z,1096.00
2018-08-11T05:56:48.377Z,976.00
2018-08-11T05:57:48.343Z,976.00
2018-08-11T05:59:41.189Z,1016.00
2018-08-11T06:00:41.128Z,1024.00
2018-08-11T06:02:34.474Z,956.00
2018-08-11T06:03:34.434Z,1020.00
2018-08-11T06:05:27.289Z,1060.00
2018-08-11T06:06:27.208Z,1072.00
2018-08-11T06:08:20.032Z,1188.00
2018-08-11T06:09:19.988Z,1188.00
2018-08-11T06:11:12.914Z,1728.00
2018-08-11T06:12:12.853Z,1672.00
2018-08-11T06:14:05.682Z,1756.00
2018-08-11T06:15:05.633Z,1596.00
2018-08-11T06:16:58.952Z,1560.00
2018-08-11T06:17:58.937Z,1688.00
2018-08-11T06:19:51.998Z,2356.00
2018-08-11T06:20:51.713Z,2448.00
2018-08-11T06:22:45.025Z,2768.00
2018-08-11T06:23:45.024Z,2644.00
2018-08-11T06:25:37.822Z,2304.00
2018-08-11T06:26:37.784Z,1784.00
2018-08-11T06:28:30.587Z,1628.00
2018-08-11T06:29:30.553Z,1876.00
2018-08-11T06:31:23.428Z,1608.00
2018-08-11T06:32:23.334Z,1316.00
2018-08-11T06:34:16.164Z,1256.00
2018-08-11T06:35:16.114Z,1568.00
2018-08-11T06:37:08.930Z,1856.00
2018-08-11T06:38:08.884Z,1908.00
2018-08-11T06:40:01.729Z,2120.00
2018-08-11T06:41:01.969Z,2028.00
2018-08-11T06:42:54.509Z,2412.00
2018-08-11T06:43:54.473Z,2340.00
2018-08-11T06:45:47.299Z,2344.00
2018-08-11T06:46:47.299Z,1848.00
2018-08-11T06:48:40.078Z,1812.00
2018-08-11T06:49:40.026Z,1876.00
2018-08-11T06:51:32.848Z,2092.00
2018-08-11T06:52:32.809Z,2036.00
2018-08-11T06:54:26.135Z,1932.00
2018-08-11T06:55:26.114Z,1776.00
2018-08-11T06:57:18.920Z,1760.00
2018-08-11T06:58:18.875Z,1772.00
2018-08-11T07:00:11.711Z,1852.00
2018-08-11T07:01:11.658Z,1852.00
2018-08-11T07:03:04.969Z,2020.00
2018-08-11T07:04:05.018Z,2260.00
2018-08-11T07:05:58.280Z,2396.00
2018-08-11T07:06:58.221Z,2576.00
2018-08-11T07:08:51.505Z,3092.00
2018-08-11T07:09:51.480Z,2508.00
2018-08-11T07:11:44.810Z,2576.00
2018-08-11T07:12:44.761Z,2364.00
2018-08-11T07:14:37.720Z,2208.00
2018-08-11T07:15:37.696Z,2228.00
2018-08-11T07:17:31.005Z,2148.00
2018-08-11T07:18:30.956Z,2176.00
2018-08-11T07:20:23.769Z,2200.00
2018-08-11T07:21:23.779Z,1976.00
2018-08-11T07:23:16.577Z,1992.00
2018-08-11T07:24:16.510Z,2152.00
2018-08-11T07:26:09.341Z,2128.00
2018-08-11T07:27:09.296Z,2144.00
2018-08-11T07:29:02.120Z,2068.00
2018-08-11T07:30:02.092Z,1932.00
2018-08-11T07:31:55.408Z,2112.00
2018-08-11T07:32:55.356Z,2352.00
2018-08-11T07:34:48.172Z,3716.00
2018-08-11T07:35:48.131Z,3812.00
2018-08-11T07:37:40.978Z,2764.00
2018-08-11T07:38:40.923Z,2516.00
2018-08-11T07:40:33.741Z,2308.00
2018-08-11T07:41:33.706Z,1888.00
2018-08-11T07:43:26.538Z,2216.00
2018-08-11T07:44:26.477Z,2612.00
2018-08-11T07:46:19.295Z,2828.00
2018-08-11T07:47:19.258Z,3476.00
2018-08-11T07:49:12.085Z,3928.00
2018-08-11T07:50:12.063Z,3592.00
2018-08-11T07:52:04.867Z,2068.00
2018-08-11T07:53:04.816Z,1788.00
2018-08-11T07:54:57.698Z,2180.00
2018-08-11T07:55:57.662Z,2304.00
2018-08-11T07:57:50.437Z,2576.00
2018-08-11T07:58:50.396Z,2680.00
2018-08-11T08:00:43.207Z,2452.00
2018-08-11T08:01:43.174Z,2352.00
2018-08-11T08:03:36.001Z,3208.00
2018-08-11T08:04:35.953Z,3684.00
2018-08-11T08:06:28.774Z,3748.00
2018-08-11T08:07:28.732Z,3432.00
2018-08-11T08:09:21.573Z,2592.00
2018-08-11T08:10:21.522Z,2544.00
2018-08-11T08:12:14.342Z,2636.00
2018-08-11T08:13:14.298Z,3216.00
2018-08-11T08:15:07.137Z,3600.00
2018-08-11T08:16:07.098Z,3824.00
2018-08-11T08:17:59.912Z,3432.00
2018-08-11T08:18:59.887Z,3356.00
2018-08-11T08:20:52.712Z,2952.00
2018-08-11T08:21:52.662Z,2580.00
2018-08-11T08:23:45.469Z,2592.00
2018-08-11T08:24:45.447Z,2784.00
2018-08-11T08:26:38.886Z,3372.00
2018-08-11T08:27:38.719Z,3284.00
2018-08-11T08:29:31.525Z,2600.00
2018-08-11T08:30:31.494Z,2392.00
2018-08-11T08:32:24.330Z,2720.00
2018-08-11T08:33:24.279Z,2888.00
2018-08-11T08:35:17.584Z,3072.00
2018-08-11T08:36:17.547Z,3316.00
2018-08-11T08:38:10.384Z,2320.00
2018-08-11T08:39:10.334Z,2220.00
2018-08-11T08:41:03.155Z,2844.00
2018-08-11T08:42:03.106Z,3488.00
2018-08-11T08:43:55.951Z,3356.00
2018-08-11T08:44:55.894Z,3048.00
2018-08-11T08:46:49.220Z,3384.00
2018-08-11T08:47:49.189Z,3760.00
2018-08-11T08:49:42.007Z,3544.00
2018-08-11T08:50:41.974Z,2720.00
2018-08-11T08:52:34.786Z,2976.00
2018-08-11T08:53:34.748Z,2772.00
2018-08-11T08:55:27.579Z,3260.00
2018-08-11T08:56:27.531Z,3732.00
2018-08-11T08:58:20.349Z,4420.00
2018-08-11T08:59:20.318Z,4412.00
2018-08-11T09:01:13.631Z,3308.00
2018-08-11T09:02:13.592Z,3424.00
2018-08-11T09:04:06.424Z,3176.00
2018-08-11T09:05:06.382Z,3320.00
2018-08-11T09:06:59.201Z,4484.00
2018-08-11T09:07:59.179Z,4812.00
2018-08-11T09:09:52.000Z,4972.00
2018-08-11T09:10:51.977Z,4544.00
2018-08-11T09:12:44.779Z,4136.00
2018-08-11T09:13:44.746Z,3936.00
2018-08-11T09:15:37.580Z,3136.00
2018-08-11T09:16:37.531Z,3836.00
2018-08-11T09:18:30.855Z,3772.00
2018-08-11T09:19:30.843Z,3788.00
2018-08-11T09:21:23.627Z,4400.00
2018-08-11T09:22:23.589Z,4788.00
2018-08-11T09:24:16.415Z,5124.00
2018-08-11T09:25:16.369Z,4376.00
2018-08-11T09:27:09.695Z,3580.00
2018-08-11T09:28:09.650Z,3740.00
2018-08-11T09:30:02.473Z,4772.00
2018-08-11T09:31:02.420Z,5660.00
2018-08-11T09:32:55.251Z,4700.00
2018-08-11T09:33:55.210Z,4424.00
2018-08-11T09:35:48.020Z,4156.00
2018-08-11T09:36:48.001Z,4572.00
2018-08-11T09:38:41.316Z,4820.00
2018-08-11T09:39:41.278Z,4556.00
2018-08-11T09:41:34.107Z,4104.00
2018-08-11T09:42:34.072Z,4120.00
2018-08-11T09:44:26.892Z,4216.00
2018-08-11T09:45:26.857Z,4300.00
2018-08-11T09:47:19.700Z,4376.00
2018-08-11T09:48:19.640Z,4612.00
2018-08-11T09:50:12.477Z,5212.00
2018-08-11T09:51:12.420Z,5788.00
2018-08-11T09:53:05.732Z,5724.00
2018-08-11T09:54:05.702Z,5708.00
2018-08-11T09:55:58.537Z,4428.00
2018-08-11T09:56:58.475Z,4184.00
2018-08-11T09:58:51.473Z,4724.00
2018-08-11T09:59:51.268Z,4412.00
2018-08-11T10:01:44.117Z,4252.00
2018-08-11T10:02:44.062Z,4744.00
2018-08-11T10:04:36.877Z,4800.00
2018-08-11T10:05:36.837Z,24736.00
2018-08-11T10:07:29.682Z,26464.00
2018-08-11T10:08:29.643Z,27232.00
2018-08-11T10:10:22.466Z,27424.00
2018-08-11T10:11:22.432Z,27456.00
2018-08-11T10:13:15.252Z,7608.00
2018-08-11T10:14:15.217Z,7360.00
2018-08-11T10:16:08.047Z,7472.00
2018-08-11T10:17:08.024Z,23424.00
2018-08-11T10:19:00.841Z,26048.00
2018-08-11T10:20:00.808Z,25600.00
2018-08-11T10:21:54.156Z,24960.00
2018-08-11T10:22:54.103Z,23488.00
2018-08-11T10:24:46.940Z,24672.00
2018-08-11T10:25:46.903Z,23168.00
2018-08-11T10:27:39.772Z,20896.00
2018-08-11T10:28:39.743Z,20480.00
2018-08-11T10:30:32.562Z,21376.00
2018-08-11T10:31:32.529Z,21472.00
2018-08-11T10:33:25.863Z,23264.00
2018-08-11T10:34:25.819Z,24992.00
2018-08-11T10:36:18.654Z,28224.00
2018-08-11T10:37:18.624Z,29696.00
2018-08-11T10:39:11.963Z,27008.00
2018-08-11T10:40:11.962Z,25600.00
2018-08-11T10:42:04.759Z,24736.00
2018-08-11T10:43:04.733Z,26208.00
2018-08-11T10:44:57.576Z,23168.00
2018-08-11T10:45:57.537Z,26784.00
2018-08-11T10:47:50.386Z,8320.00
2018-08-11T10:48:50.343Z,19168.00
2018-08-11T10:50:43.198Z,9724.00
2018-08-11T10:51:43.168Z,8672.00
2018-08-11T10:53:36.004Z,22400.00
2018-08-11T10:54:35.954Z,21184.00
2018-08-11T10:56:29.283Z,20096.00
2018-08-11T10:57:29.253Z,19712.00
2018-08-11T10:59:22.590Z,23008.00
2018-08-11T11:00:22.554Z,6080.00
2018-08-11T11:02:15.875Z,5324.00
2018-08-11T11:03:15.855Z,5524.00
2018-08-11T11:05:08.705Z,5836.00
2018-08-11T11:06:08.653Z,5792.00
2018-08-11T11:08:01.486Z,6720.00
2018-08-11T11:09:01.449Z,20512.00
2018-08-11T11:10:54.303Z,18560.00
2018-08-11T11:11:54.253Z,18496.00
2018-08-11T11:13:47.089Z,17344.00
2018-08-11T11:14:47.044Z,17088.00
2018-08-11T11:16:39.879Z,16384.00
2018-08-11T11:17:39.859Z,16544.00
2018-08-11T11:19:32.696Z,11280.00
2018-08-11T11:20:32.662Z,9068.00
2018-08-11T11:22:25.495Z,16608.00
2018-08-11T11:23:25.472Z,15636.00
2018-08-11T11:25:18.801Z,4744.00
2018-08-11T11:26:18.777Z,4656.00
2018-08-11T11:28:11.651Z,5036.00
2018-08-11T11:29:11.576Z,17408.00
2018-08-11T11:31:04.414Z,17792.00
2018-08-11T11:32:04.376Z,17280.00
2018-08-11T11:33:57.195Z,15636.00
2018-08-11T11:34:57.179Z,16256.00
2018-08-11T11:36:50.012Z,16672.00
2018-08-11T11:37:49.974Z,16896.00
2018-08-11T11:39:42.817Z,16416.00
2018-08-11T11:40:42.778Z,16224.00
2018-08-11T11:42:35.607Z,17120.00
2018-08-11T11:43:35.570Z,16960.00
2018-08-11T11:45:28.424Z,7500.00
2018-08-11T11:46:28.391Z,17920.00
2018-08-11T11:48:21.696Z,17888.00
2018-08-11T11:49:21.686Z,17088.00
2018-08-11T11:51:14.537Z,17696.00
2018-08-11T11:52:14.484Z,17248.00
2018-08-11T11:54:07.307Z,16544.00
2018-08-11T11:55:07.287Z,6312.00
2018-08-11T11:57:00.118Z,15344.00
2018-08-11T11:58:00.102Z,14924.00
2018-08-11T11:59:53.436Z,13820.00
2018-08-11T12:00:53.385Z,15244.00
2018-08-11T12:02:46.300Z,5476.00
2018-08-11T12:03:46.261Z,5264.00
2018-08-11T12:05:39.124Z,16064.00
2018-08-11T12:06:39.069Z,15216.00
2018-08-11T12:08:31.905Z,15068.00
2018-08-11T12:09:31.862Z,15160.00
2018-08-11T12:11:24.721Z,15572.00
2018-08-11T12:12:24.687Z,15644.00
2018-08-11T12:14:17.518Z,14756.00
2018-08-11T12:15:17.491Z,14660.00
2018-08-11T12:17:10.331Z,14412.00
2018-08-11T12:18:10.298Z,14208.00
2018-08-11T12:20:03.109Z,12324.00
2018-08-11T12:21:03.100Z,4136.00
2018-08-11T12:22:55.943Z,4196.00
2018-08-11T12:23:55.917Z,13888.00
2018-08-11T12:25:48.717Z,13944.00
2018-08-11T12:26:48.706Z,12392.00
2018-08-11T12:28:41.557Z,13608.00
2018-08-11T12:29:41.511Z,12700.00
2018-08-11T12:31:34.357Z,10048.00
2018-08-11T12:32:34.311Z,11336.00
2018-08-11T12:34:27.636Z,5092.00
2018-08-11T12:35:27.621Z,5208.00
2018-08-11T12:37:20.498Z,5328.00
2018-08-11T12:38:20.452Z,12972.00
2018-08-11T12:40:13.305Z,11088.00
2018-08-11T12:41:13.242Z,12268.00
2018-08-11T12:43:06.087Z,4632.00
2018-08-11T12:44:06.042Z,4396.00
2018-08-11T12:45:58.944Z,12472.00
2018-08-11T12:46:58.868Z,13136.00
2018-08-11T12:48:51.699Z,12332.00
2018-08-11T12:49:51.662Z,13000.00
2018-08-11T12:51:44.489Z,12868.00
2018-08-11T12:52:44.458Z,12840.00
2018-08-11T12:54:37.308Z,12840.00
2018-08-11T12:55:37.268Z,12828.00
2018-08-11T12:57:30.098Z,12968.00
2018-08-11T12:58:30.060Z,12940.00
2018-08-11T13:00:23.384Z,12776.00
2018-08-11T13:01:23.359Z,12460.00
2018-08-11T13:03:16.206Z,12780.00
2018-08-11T13:04:16.163Z,12844.00
2018-08-11T13:06:09.005Z,12496.00
2018-08-11T13:07:08.964Z,12508.00
2018-08-11T13:09:01.784Z,12520.00
2018-08-11T13:10:01.763Z,12404.00
2018-08-11T13:11:54.604Z,12412.00
2018-08-11T13:12:54.565Z,12760.00
2018-08-11T13:14:47.402Z,5200.00
2018-08-11T13:15:47.364Z,6876.00
2018-08-11T13:17:40.325Z,4300.00
2018-08-11T13:18:40.160Z,3896.00
2018-08-11T13:20:33.081Z,11700.00
2018-08-11T13:21:32.973Z,11732.00
2018-08-11T13:23:25.795Z,11308.00
2018-08-11T13:24:25.769Z,3524.00
2018-08-11T13:26:19.107Z,10840.00
2018-08-11T13:27:19.060Z,10808.00
2018-08-11T13:29:11.895Z,10564.00
2018-08-11T13:30:11.874Z,10536.00
2018-08-11T13:32:05.221Z,10288.00
2018-08-11T13:33:05.179Z,10196.00
2018-08-11T13:34:58.031Z,10068.00
2018-08-11T13:35:58.008Z,9700.00
2018-08-11T13:37:51.315Z,9876.00
2018-08-11T13:38:51.289Z,10112.00
2018-08-11T13:40:44.136Z,10256.00
2018-08-11T13:41:44.092Z,10220.00
2018-08-11T13:43:36.934Z,9988.00
2018-08-11T13:44:36.888Z,9908.00
2018-08-11T13:46:29.739Z,2872.00
2018-08-11T13:47:29.711Z,9928.00
2018-08-11T13:49:23.017Z,9880.00
2018-08-11T13:50:22.995Z,9776.00
2018-08-11T13:52:15.843Z,9496.00
2018-08-11T13:53:15.789Z,9512.00
2018-08-11T13:55:09.233Z,10200.00
2018-08-11T13:56:09.091Z,8216.00
2018-08-11T13:58:02.429Z,10296.00
2018-08-11T13:59:02.391Z,6804.00
2018-08-11T14:00:55.241Z,6680.00
2018-08-11T14:01:55.191Z,8232.00
2018-08-11T14:03:48.511Z,10080.00
2018-08-11T14:04:48.486Z,10148.00
2018-08-11T14:06:41.356Z,9832.00
2018-08-11T14:07:41.285Z,9712.00
2018-08-11T14:09:34.119Z,9572.00
2018-08-11T14:10:34.096Z,9340.00
2018-08-11T14:12:26.952Z,9192.00
2018-08-11T14:13:26.897Z,9108.00
2018-08-11T14:15:19.746Z,9088.00
2018-08-11T14:16:19.717Z,9020.00
2018-08-11T14:18:13.906Z,9172.00
2018-08-11T14:19:13.861Z,7024.00
2018-08-11T14:21:07.200Z,2856.00
2018-08-11T14:22:07.169Z,6656.00
2018-08-11T14:24:00.033Z,8948.00
2018-08-11T14:24:59.978Z,8956.00
2018-08-11T14:26:52.831Z,8928.00
2018-08-11T14:27:52.783Z,9092.00
2018-08-11T14:29:45.609Z,9232.00
2018-08-11T14:30:45.581Z,8964.00
2018-08-11T14:32:38.478Z,8796.00
2018-08-11T14:33:38.383Z,8676.00
2018-08-11T14:35:31.905Z,7624.00
2018-08-11T14:36:31.673Z,7588.00
2018-08-11T14:38:25.012Z,8388.00
2018-08-11T14:39:24.968Z,8592.00
2018-08-11T14:41:17.807Z,8548.00
2018-08-11T14:42:17.797Z,8464.00
2018-08-11T14:44:11.128Z,7956.00
2018-08-11T14:45:11.079Z,8080.00
2018-08-11T14:47:03.917Z,8264.00
2018-08-11T14:48:03.956Z,8404.00
2018-08-11T14:49:56.722Z,8588.00
2018-08-11T14:50:56.678Z,8600.00
2018-08-11T14:52:50.033Z,7956.00
2018-08-11T14:53:49.988Z,8008.00
2018-08-11T14:55:42.821Z,7624.00
2018-08-11T14:56:42.778Z,7556.00
2018-08-11T14:58:36.118Z,7188.00
2018-08-11T14:59:36.092Z,7436.00
2018-08-11T15:01:28.927Z,7456.00
2018-08-11T15:02:28.894Z,7248.00
2018-08-11T15:04:21.746Z,7768.00
2018-08-11T15:05:21.704Z,7796.00
2018-08-11T15:07:14.523Z,7512.00
2018-08-11T15:08:14.497Z,7736.00
2018-08-11T15:10:07.391Z,7204.00
2018-08-11T15:11:07.367Z,6844.00
2018-08-11T15:13:00.135Z,6624.00
2018-08-11T15:14:00.110Z,6560.00
2018-08-11T15:15:52.992Z,7284.00
2018-08-11T15:16:52.914Z,6608.00
2018-08-11T15:18:45.749Z,5024.00
2018-08-11T15:19:45.710Z,5416.00
2018-08-11T15:21:38.554Z,7136.00
2018-08-11T15:22:38.528Z,6928.00
2018-08-11T15:24:31.378Z,6784.00
2018-08-11T15:25:31.323Z,7096.00
2018-08-11T15:27:24.640Z,7440.00
2018-08-11T15:28:24.619Z,7588.00
2018-08-11T15:30:17.951Z,7300.00
2018-08-11T15:31:17.914Z,7196.00
2018-08-11T15:33:10.729Z,7892.00
2018-08-11T15:34:10.706Z,7576.00
2018-08-11T15:36:04.055Z,8092.00
2018-08-11T15:37:04.011Z,8036.00
2018-08-11T15:38:57.388Z,7852.00
2018-08-11T15:39:57.352Z,7696.00
2018-08-11T15:41:50.187Z,7528.00
2018-08-11T15:42:50.146Z,7880.00
2018-08-11T15:44:43.500Z,7856.00
2018-08-11T15:45:43.436Z,7760.00
2018-08-11T15:47:36.277Z,8048.00
2018-08-11T15:48:36.255Z,8080.00
2018-08-11T15:50:29.084Z,7500.00
2018-08-11T15:51:29.049Z,7628.00
2018-08-11T15:53:21.876Z,7748.00
2018-08-11T15:54:21.950Z,7848.00
2018-08-11T15:56:14.707Z,7836.00
2018-08-11T15:57:14.661Z,7756.00
2018-08-11T15:59:07.992Z,7316.00
2018-08-11T16:00:07.956Z,7528.00
2018-08-11T16:02:01.285Z,7284.00
2018-08-11T16:03:01.248Z,6744.00
2018-08-11T16:04:54.109Z,6488.00
2018-08-11T16:05:54.052Z,6480.00
2018-08-11T16:07:47.389Z,6332.00
2018-08-11T16:08:47.352Z,6524.00
2018-08-11T16:10:40.672Z,5888.00
2018-08-11T16:11:40.635Z,5800.00
2018-08-11T16:13:33.976Z,6488.00
2018-08-11T16:14:33.932Z,6624.00
2018-08-11T16:16:26.781Z,6484.00
2018-08-11T16:17:26.726Z,6956.00
2018-08-11T16:19:20.045Z,6692.00
2018-08-11T16:20:20.018Z,6564.00
2018-08-11T16:22:12.867Z,6144.00
2018-08-11T16:23:12.837Z,5892.00
2018-08-11T16:25:05.660Z,5196.00
2018-08-11T16:26:05.615Z,5188.00
2018-08-11T16:27:58.464Z,4452.00
2018-08-11T16:28:58.430Z,4908.00
2018-08-11T16:30:51.246Z,4248.00
2018-08-11T16:31:51.243Z,5172.00
2018-08-11T16:33:44.560Z,5052.00
2018-08-11T16:34:44.523Z,5340.00
2018-08-11T16:36:37.347Z,4472.00
2018-08-11T16:37:37.318Z,4000.00
2018-08-11T16:39:30.200Z,4212.00
2018-08-11T16:40:30.128Z,4004.00
2018-08-11T16:42:22.976Z,4292.00
2018-08-11T16:43:22.912Z,4260.00
2018-08-11T16:45:15.745Z,4544.00
2018-08-11T16:46:15.723Z,4672.00
2018-08-11T16:48:08.548Z,4092.00
2018-08-11T16:49:08.508Z,4180.00
2018-08-11T16:51:01.817Z,4128.00
2018-08-11T16:52:01.809Z,4696.00
2018-08-11T16:53:54.732Z,5012.00
2018-08-11T16:54:54.631Z,4540.00
2018-08-11T16:56:47.421Z,4984.00
2018-08-11T16:57:47.398Z,5476.00
2018-08-11T16:59:40.296Z,5112.00
2018-08-11T17:00:40.200Z,4956.00
2018-08-11T17:02:33.028Z,4880.00
2018-08-11T17:03:32.999Z,4840.00
2018-08-11T17:05:25.841Z,4412.00
2018-08-11T17:06:25.794Z,4144.00
2018-08-11T17:08:19.152Z,3776.00
2018-08-11T17:09:19.079Z,4028.00
2018-08-11T17:11:12.394Z,3696.00
2018-08-11T17:12:12.369Z,3628.00
2018-08-11T17:14:05.203Z,3948.00
2018-08-11T17:15:05.173Z,3784.00
2018-08-11T17:16:58.483Z,3752.00
2018-08-11T17:17:58.448Z,4080.00
2018-08-11T17:19:51.288Z,4124.00
2018-08-11T17:20:51.272Z,3944.00
2018-08-11T17:22:44.067Z,3680.00
2018-08-11T17:23:44.041Z,3360.00
2018-08-11T17:25:36.870Z,3072.00
2018-08-11T17:26:36.848Z,2768.00
2018-08-11T17:28:29.654Z,2452.00
2018-08-11T17:29:29.629Z,2132.00
2018-08-11T17:31:22.954Z,1908.00
2018-08-11T17:32:22.965Z,1712.00
2018-08-11T17:34:15.745Z,1640.00
2018-08-11T17:35:15.699Z,1580.00
2018-08-11T17:37:08.530Z,1648.00
2018-08-11T17:38:08.494Z,1696.00
2018-08-11T17:40:01.339Z,2100.00
2018-08-11T17:41:01.297Z,1896.00
2018-08-11T17:42:54.610Z,2268.00
2018-08-11T17:43:54.575Z,2296.00
2018-08-11T17:45:47.414Z,2668.00